Time;durP1;ratioP1;P1;durP2;ratioP2;P2;SDS_P1;SDS_P2;PMS_P1;PMS_P2;Temp;Humidity;BMP_temperature;BMP_pressure;BME280_temperature;BME280_humidity;BME280_pressure;Samples;Min_cycle;Max_cycle;Signal;HPM_P1;HPM_P2
2022/01/20 00:00:19;;;;;;;2.50;1.30;;;;;;;5.92;79.40;101301.28;5107237;27;20240;-66
2022/01/20 00:02:50;;;;;;;2.60;1.37;;;;;;;5.98;79.16;101306.19;5101844;27;20298;-66
2022/01/20 00:05:32;;;;;;;3.03;1.27;;;;;;;6.02;79.68;101315.56;5110534;27;20237;-67
2022/01/20 00:08:09;;;;;;;2.43;1.23;;;;;;;5.83;80.05;101322.91;5094402;28;20203;-66
2022/01/20 00:27:04;;;;;;;2.10;1.30;;;;;;;6.33;78.54;101346.84;5120461;28;20223;-66
2022/01/20 00:29:46;;;;;;;1.97;1.30;;;;;;;6.01;79.46;101348.09;5099875;28;20218;-67
2022/01/20 00:32:14;;;;;;;2.03;1.03;;;;;;;6.13;79.24;101338.56;5099060;28;20218;-66
2022/01/20 00:37:30;;;;;;;2.23;1.00;;;;;;;6.21;78.70;101339.75;5098311;28;20260;-66
2022/01/20 00:39:59;;;;;;;2.20;1.07;;;;;;;6.23;78.58;101329.97;5103810;28;20206;-66
2022/01/20 00:42:27;;;;;;;3.70;1.20;;;;;;;6.28;78.17;101346.31;5113394;28;20381;-66
2022/01/20 00:44:55;;;;;;;2.40;1.40;;;;;;;6.28;78.52;101348.97;5091126;28;20244;-65
2022/01/20 00:47:23;;;;;;;2.33;1.33;;;;;;;6.03;79.42;101348.84;5096619;28;20216;-65
2022/01/20 00:49:51;;;;;;;1.97;1.13;;;;;;;6.30;78.36;101352.34;5097347;28;20213;-66
2022/01/20 00:52:19;;;;;;;3.07;1.20;;;;;;;6.03;79.09;101348.84;5093810;28;20635;-66
2022/01/20 00:54:48;;;;;;;2.73;1.40;;;;;;;5.90;79.76;101351.41;5092430;28;20237;-66
2022/01/20 00:57:16;;;;;;;3.20;1.63;;;;;;;6.06;79.43;101363.63;5103580;28;20701;-65
2022/01/20 00:59:44;;;;;;;3.53;1.50;;;;;;;6.11;78.62;101350.97;5099453;28;20287;-66
2022/01/20 01:02:13;;;;;;;3.27;1.40;;;;;;;5.97;79.48;101344.81;5096907;28;20769;-66
2022/01/20 01:04:42;;;;;;;2.43;1.30;;;;;;;5.93;79.34;101342.47;5097552;28;20230;-66
2022/01/20 01:09:55;;;;;;;2.77;1.47;;;;;;;6.08;79.03;101352.00;5090559;28;20228;-66
2022/01/20 01:12:32;;;;;;;2.67;1.40;;;;;;;5.82;79.93;101345.75;5101943;28;20645;-66
2022/01/20 01:15:02;;;;;;;2.33;1.47;;;;;;;5.84;79.86;101358.81;5095983;28;20771;-66
2022/01/20 01:20:19;;;;;;;3.23;1.43;;;;;;;5.86;80.24;101362.19;5103437;28;20210;-66
2022/01/20 01:22:46;;;;;;;3.93;1.77;;;;;;;5.92;79.82;101356.56;5105044;27;20683;-65
2022/01/20 01:25:16;;;;;;;3.40;1.50;;;;;;;5.89;80.42;101351.53;5095922;28;20265;-66
2022/01/20 01:27:45;;;;;;;3.17;1.50;;;;;;;5.99;79.93;101357.88;5101411;27;20213;-66
2022/01/20 01:30:29;;;;;;;3.97;1.93;;;;;;;6.03;79.27;101351.47;5109300;27;20221;-66
2022/01/20 01:32:57;;;;;;;4.07;2.00;;;;;;;5.82;79.97;101355.41;5113358;27;20553;-66
2022/01/20 01:35:27;;;;;;;3.40;1.80;;;;;;;5.88;80.49;101355.94;5106339;27;20245;-65
2022/01/20 01:40:42;;;;;;;3.57;1.90;;;;;;;5.88;80.23;101366.47;5096906;28;20211;-65
2022/01/20 01:43:19;;;;;;;4.20;2.30;;;;;;;5.94;79.76;101370.50;5104503;28;20241;-65
2022/01/20 01:45:48;;;;;;;3.27;2.03;;;;;;;5.89;79.03;101368.13;5103932;28;20221;-65
2022/01/20 01:48:16;;;;;;;3.50;2.00;;;;;;;6.00;78.74;101364.81;5109491;28;20214;-65
2022/01/20 01:50:44;;;;;;;3.43;2.07;;;;;;;6.03;78.43;101367.28;5113475;27;20221;-66
2022/01/20 01:53:14;;;;;;;3.47;2.33;;;;;;;6.13;78.39;101371.03;5097411;27;20359;-66
2022/01/20 01:55:44;;;;;;;3.67;2.23;;;;;;;6.00;78.54;101372.72;5109813;27;20294;-66
2022/01/20 01:58:12;;;;;;;4.40;2.50;;;;;;;6.06;78.34;101364.47;5105715;27;20215;-65
2022/01/20 02:00:40;;;;;;;4.20;2.03;;;;;;;5.75;79.96;101364.66;5098077;27;20301;-66
2022/01/20 02:03:08;;;;;;;4.23;2.47;;;;;;;5.76;80.28;101379.50;5111552;27;20206;-65
2022/01/20 02:05:48;;;;;;;3.57;2.20;;;;;;;5.65;80.76;101381.00;5096879;28;20213;-65
2022/01/20 02:08:29;;;;;;;3.60;2.33;;;;;;;5.76;80.65;101380.34;5111176;27;20715;-65
2022/01/20 02:19:18;;;;;;;4.70;2.53;;;;;;;6.29;78.32;101382.25;5099327;27;20229;-65
2022/01/20 02:21:49;;;;;;;4.30;2.70;;;;;;;6.36;78.11;101375.66;5106873;28;20529;-65
2022/01/20 02:24:17;;;;;;;4.60;2.47;;;;;;;6.12;78.87;101369.31;5098540;28;20205;-65
2022/01/20 02:26:45;;;;;;;5.20;2.87;;;;;;;6.15;79.15;101374.41;5102470;27;20288;-66
2022/01/20 02:29:14;;;;;;;4.40;2.60;;;;;;;5.98;79.64;101372.00;5105689;27;20294;-65
2022/01/20 02:31:43;;;;;;;5.50;3.03;;;;;;;5.87;80.54;101380.53;5101970;27;20628;-65
2022/01/20 02:34:12;;;;;;;4.60;2.53;;;;;;;5.91;80.88;101387.31;5099221;27;20211;-65
2022/01/20 02:36:44;;;;;;;4.37;2.90;;;;;;;5.80;81.16;101388.91;5095175;28;20616;-65
2022/01/20 02:39:27;;;;;;;4.93;2.87;;;;;;;5.63;81.95;101384.66;5104758;28;20293;-65
2022/01/20 02:44:51;;;;;;;6.43;3.77;;;;;;;5.78;81.16;101386.38;5106460;27;20302;-64
2022/01/20 02:47:20;;;;;;;5.43;2.77;;;;;;;5.91;80.62;101389.09;5112377;27;20585;-65
2022/01/20 02:49:49;;;;;;;6.03;3.43;;;;;;;5.88;80.83;101392.78;5109937;27;20793;-65
2022/01/20 02:52:17;;;;;;;6.70;3.50;;;;;;;5.95;80.29;101374.81;5104737;28;20503;-66
2022/01/20 02:54:46;;;;;;;7.00;3.13;;;;;;;6.30;78.67;101372.56;5107476;27;20718;-66
2022/01/20 02:57:14;;;;;;;5.90;3.20;;;;;;;6.23;78.63;101366.00;5108299;27;20269;-66
2022/01/20 02:59:42;;;;;;;5.73;3.20;;;;;;;6.35;77.54;101366.03;5106111;27;20222;-66
2022/01/20 03:02:10;;;;;;;7.10;3.33;;;;;;;6.31;77.56;101354.03;5105647;28;20248;-66
2022/01/20 03:04:38;;;;;;;5.87;3.60;;;;;;;6.12;78.27;101348.25;5094349;28;20215;-66
2022/01/20 03:07:11;;;;;;;5.03;2.97;;;;;;;5.87;79.63;101359.47;5108630;27;20259;-66
2022/01/20 03:09:39;;;;;;;5.43;3.10;;;;;;;6.29;77.94;101360.34;5103957;28;20294;-67
2022/01/20 03:12:08;;;;;;;5.80;3.63;;;;;;;6.30;78.03;101364.66;5105976;27;20213;-66
2022/01/20 03:14:37;;;;;;;7.23;3.70;;;;;;;5.94;78.83;101365.22;5091821;28;20951;-66
2022/01/20 03:17:04;;;;;;;7.47;3.80;;;;;;;6.24;78.15;101371.19;5109362;28;20206;-66
2022/01/20 03:19:32;;;;;;;6.97;4.10;;;;;;;6.09;78.42;101374.78;5102044;28;20245;-66
2022/01/20 03:22:00;;;;;;;5.60;3.43;;;;;;;6.25;77.80;101375.47;5107065;27;20361;-65
2022/01/20 03:24:28;;;;;;;9.97;3.70;;;;;;;6.35;77.59;101378.38;5106822;27;20337;-65
2022/01/20 03:26:56;;;;;;;4.87;3.47;;;;;;;6.30;77.45;101373.41;5110289;28;20241;-65
2022/01/20 03:29:25;;;;;;;7.00;4.00;;;;;;;6.14;78.39;101377.97;5093822;28;20239;-65
2022/01/20 03:31:53;;;;;;;9.10;4.17;;;;;;;6.18;78.37;101374.19;5104865;27;20209;-66
2022/01/20 03:34:22;;;;;;;6.87;3.60;;;;;;;5.91;79.21;101373.31;5102851;27;20694;-66
2022/01/20 03:36:50;;;;;;;7.23;4.27;;;;;;;6.06;78.44;101372.34;5102030;28;20219;-66
2022/01/20 03:39:18;;;;;;;6.03;3.43;;;;;;;6.11;78.68;101378.16;5105153;28;20210;-66
2022/01/20 03:41:46;;;;;;;5.70;3.60;;;;;;;5.97;79.04;101388.72;5090153;28;20234;-66
2022/01/20 03:44:16;;;;;;;5.90;3.60;;;;;;;5.98;78.76;101379.91;5104806;28;20215;-66
2022/01/20 03:46:45;;;;;;;7.17;3.50;;;;;;;6.08;78.04;101370.44;5094222;28;20207;-65
2022/01/20 03:49:26;;;;;;;9.23;3.60;;;;;;;6.02;77.96;101376.97;5096790;27;20293;-65
2022/01/20 03:51:54;;;;;;;5.50;3.50;;;;;;;6.01;77.91;101374.41;5105872;27;20215;-66
2022/01/20 03:54:26;;;;;;;9.77;4.00;;;;;;;6.07;77.52;101376.66;5099312;27;20193;-65
2022/01/20 03:56:54;;;;;;;6.37;3.60;;;;;;;5.90;78.24;101384.78;5094062;28;20322;-66
2022/01/20 03:59:21;;;;;;;8.20;3.90;;;;;;;5.99;77.74;101392.09;5098380;28;20226;-66
2022/01/20 04:01:50;;;;;;;7.07;3.97;;;;;;;5.89;77.34;101401.53;5095692;28;20274;-65
2022/01/20 04:04:18;;;;;;;5.57;3.50;;;;;;;6.01;77.14;101408.66;5104046;27;20697;-65
2022/01/20 04:06:47;;;;;;;8.10;5.03;;;;;;;6.21;76.48;101400.34;5098572;28;20227;-66
2022/01/20 04:09:15;;;;;;;7.80;3.53;;;;;;;5.83;77.29;101404.50;5099110;27;20572;-66
2022/01/20 04:11:43;;;;;;;7.57;4.20;;;;;;;5.91;77.04;101405.75;5102620;27;20765;-66
2022/01/20 04:14:12;;;;;;;7.77;3.80;;;;;;;5.61;77.52;101397.94;5098305;28;20318;-67
2022/01/20 04:16:53;;;;;;;6.87;3.57;;;;;;;5.97;76.99;101405.38;5107144;28;20316;-65
2022/01/20 04:19:22;;;;;;;7.63;3.87;;;;;;;5.95;76.83;101401.16;5095249;28;20206;-65
2022/01/20 04:21:50;;;;;;;7.43;3.77;;;;;;;6.16;76.07;101402.41;5105242;27;20301;-66
2022/01/20 04:24:18;;;;;;;6.87;3.90;;;;;;;6.05;75.94;101394.38;5101955;28;20210;-66
2022/01/20 04:26:48;;;;;;;8.73;4.20;;;;;;;5.89;76.68;101404.16;5100022;28;20225;-66
2022/01/20 04:29:17;;;;;;;8.30;4.17;;;;;;;5.93;76.89;101400.38;5103575;28;20207;-66
2022/01/20 04:31:46;;;;;;;7.60;3.90;;;;;;;5.97;76.40;101396.63;5093634;28;20770;-66
2022/01/20 04:34:14;;;;;;;7.97;4.10;;;;;;;5.78;77.26;101402.16;5091377;28;20348;-64
2022/01/20 04:36:45;;;;;;;12.10;4.50;;;;;;;5.66;77.79;101398.50;5101258;28;20225;-65
2022/01/20 04:39:18;;;;;;;7.57;4.10;;;;;;;5.87;76.58;101392.84;5106286;28;20210;-66
2022/01/20 04:41:47;;;;;;;8.47;4.23;;;;;;;5.97;76.39;101401.91;5095512;28;20222;-65
2022/01/20 04:44:20;;;;;;;7.93;3.70;;;;;;;5.94;76.29;101383.66;5102215;28;20279;-66
2022/01/20 04:46:54;;;;;;;9.60;3.80;;;;;;;5.84;76.44;101393.88;5106789;28;20670;-66
2022/01/20 04:57:39;;;;;;;8.37;3.10;;;;;;;5.32;77.93;101383.06;5116935;27;20376;-66
2022/01/20 05:00:08;;;;;;;7.30;3.30;;;;;;;5.25;76.99;101360.72;5102364;27;20232;-66
2022/01/20 05:02:36;;;;;;;6.53;3.00;;;;;;;5.18;76.86;101365.50;5099845;28;20233;-66
2022/01/20 05:05:07;;;;;;;8.37;4.40;;;;;;;4.73;77.69;101363.78;5097092;28;20253;-66
2022/01/20 05:07:37;;;;;;;14.43;3.83;;;;;;;5.06;77.80;101355.69;5110280;27;20197;-65
2022/01/20 05:10:07;;;;;;;6.70;3.40;;;;;;;5.14;77.18;101352.59;5106427;27;20606;-66
2022/01/20 05:12:59;;;;;;;10.40;3.37;;;;;;;4.98;76.41;101341.31;5097995;28;21106;-66
2022/01/20 05:15:24;;;;;;;8.63;3.60;;;;;;;5.17;77.11;101373.47;5109758;27;20277;-65
2022/01/20 05:17:54;;;;;;;6.27;2.93;;;;;;;5.42;75.68;101376.31;5105421;28;20215;-65
2022/01/20 05:20:22;;;;;;;13.03;3.00;;;;;;;5.33;75.71;101368.97;5099231;27;20240;-65
2022/01/20 05:22:51;;;;;;;12.30;3.33;;;;;;;5.39;75.18;101363.34;5099573;28;20249;-65
2022/01/20 05:25:19;;;;;;;10.97;3.00;;;;;;;5.13;76.04;101371.94;5099409;28;20316;-64
2022/01/20 05:27:47;;;;;;;13.30;3.17;;;;;;;4.90;76.95;101379.44;5113092;27;20292;-65
2022/01/20 05:30:14;;;;;;;6.57;2.87;;;;;;;5.33;76.07;101368.97;5103686;28;20216;-65
2022/01/20 05:32:42;;;;;;;9.20;3.20;;;;;;;5.34;75.77;101370.69;5105596;27;20216;-65
2022/01/20 05:35:10;;;;;;;11.97;3.60;;;;;;;5.06;76.67;101375.88;5106787;28;20210;-66
2022/01/20 05:37:38;;;;;;;7.53;2.50;;;;;;;4.85;77.56;101372.72;5097664;27;20767;-66
2022/01/20 05:40:09;;;;;;;6.87;3.10;;;;;;;4.71;78.54;101381.44;5098184;28;20305;-65
2022/01/20 05:42:37;;;;;;;14.43;3.20;;;;;;;5.03;77.88;101384.78;5096455;28;20301;-65
2022/01/20 05:45:06;;;;;;;14.47;3.80;;;;;;;5.19;77.09;101385.56;5103245;27;20206;-66
2022/01/20 05:47:41;;;;;;;12.77;3.93;;;;;;;5.02;77.65;101400.66;5104566;27;20207;-66
2022/01/20 05:50:10;;;;;;;12.50;3.90;;;;;;;5.00;78.65;101392.03;5106511;28;20296;-65
2022/01/20 05:52:41;;;;;;;10.33;4.27;;;;;;;5.15;77.72;101385.84;5106707;27;20712;-65
2022/01/20 05:55:14;;;;;;;13.30;4.10;;;;;;;5.37;76.46;101390.66;5105455;27;20214;-66
2022/01/20 05:57:42;;;;;;;14.70;4.77;;;;;;;5.53;75.96;101408.09;5100614;27;20234;-66
2022/01/20 06:00:17;;;;;;;11.73;3.70;;;;;;;5.14;76.99;101407.81;5105906;28;20206;-66
2022/01/20 06:05:31;;;;;;;10.77;2.83;;;;;;;5.43;76.83;101387.69;5103768;27;20242;-66
2022/01/20 06:07:59;;;;;;;13.80;3.13;;;;;;;5.51;76.34;101385.44;5099898;28;20633;-67
2022/01/20 06:10:28;;;;;;;11.03;3.43;;;;;;;5.74;75.58;101394.53;5100999;28;20250;-65
2022/01/20 06:12:56;;;;;;;12.57;3.53;;;;;;;5.69;75.36;101400.09;5106804;28;20687;-66
2022/01/20 06:15:24;;;;;;;10.83;3.60;;;;;;;5.70;75.49;101400.94;5107294;28;20210;-65
2022/01/20 06:17:52;;;;;;;11.67;2.73;;;;;;;5.42;75.88;101400.00;5104666;27;20217;-65
2022/01/20 06:20:20;;;;;;;12.70;3.17;;;;;;;5.48;75.66;101399.59;5119801;27;20300;-65
2022/01/20 06:22:48;;;;;;;12.13;3.63;;;;;;;5.40;76.13;101393.97;5099147;28;20215;-64
2022/01/20 06:25:15;;;;;;;11.37;3.53;;;;;;;5.44;75.80;101381.50;5104053;27;20278;-67
2022/01/20 06:27:45;;;;;;;9.27;3.47;;;;;;;5.51;75.38;101385.44;5119434;27;20628;-66
2022/01/20 06:30:15;;;;;;;13.80;3.70;;;;;;;5.53;75.54;101387.03;5101823;27;20224;-66
2022/01/20 06:32:43;;;;;;;11.33;3.20;;;;;;;5.50;75.52;101376.69;5094234;28;20215;-66
2022/01/20 06:35:11;;;;;;;14.03;4.03;;;;;;;5.28;76.70;101382.38;5101927;28;20295;-66
2022/01/20 06:37:39;;;;;;;9.90;3.60;;;;;;;5.11;77.90;101389.59;5108080;27;20222;-66
2022/01/20 06:40:08;;;;;;;13.60;3.90;;;;;;;5.17;78.09;101376.94;5093258;28;20484;-66
2022/01/20 06:42:36;;;;;;;11.50;3.60;;;;;;;5.05;78.52;101380.28;5109882;27;20291;-66
2022/01/20 06:45:08;;;;;;;14.43;4.10;;;;;;;4.91;79.58;101378.50;5109412;28;20233;-66
2022/01/20 06:47:36;;;;;;;12.17;4.23;;;;;;;5.11;79.08;101379.06;5099917;28;20210;-66
2022/01/20 06:50:06;;;;;;;13.20;4.80;;;;;;;5.08;79.28;101392.44;5100056;27;20637;-66
2022/01/20 06:52:33;;;;;;;11.87;4.37;;;;;;;5.27;78.77;101400.91;5107474;27;20266;-66
2022/01/20 06:55:05;;;;;;;13.60;4.50;;;;;;;5.28;78.45;101392.06;5101947;28;20224;-65
2022/01/20 06:57:32;;;;;;;14.63;4.40;;;;;;;4.87;80.05;101403.25;5115423;27;20293;-65
2022/01/20 07:00:03;;;;;;;13.83;5.07;;;;;;;5.00;80.09;101418.31;5098077;27;20214;-65
2022/01/20 07:02:32;;;;;;;13.30;5.10;;;;;;;5.11;79.52;101418.50;5104863;27;20252;-65
2022/01/20 07:05:00;;;;;;;16.13;5.37;;;;;;;5.25;78.55;101424.66;5104487;27;20223;-65
2022/01/20 07:07:28;;;;;;;14.80;5.33;;;;;;;5.38;77.82;101430.03;5110412;27;20212;-65
2022/01/20 07:09:56;;;;;;;16.90;5.13;;;;;;;5.34;77.66;101444.31;5113516;27;20205;-65
2022/01/20 07:12:24;;;;;;;17.13;5.70;;;;;;;5.47;77.38;101439.16;5106386;28;20274;-65
2022/01/20 07:14:52;;;;;;;14.63;5.33;;;;;;;5.04;78.58;101449.59;5107947;28;20256;-65
2022/01/20 07:17:20;;;;;;;12.30;5.50;;;;;;;5.00;79.27;101444.59;5107541;27;20276;-65
2022/01/20 07:19:49;;;;;;;15.10;6.53;;;;;;;4.91;79.73;101438.09;5100559;28;20234;-65
2022/01/20 07:22:16;;;;;;;12.47;5.20;;;;;;;4.90;79.61;101439.88;5105983;28;20640;-66
2022/01/20 07:24:48;;;;;;;17.13;5.10;;;;;;;4.93;79.58;101437.06;5098566;28;20278;-66
2022/01/20 07:27:16;;;;;;;16.87;5.40;;;;;;;5.01;79.02;101446.31;5102451;27;20237;-65
2022/01/20 07:29:44;;;;;;;13.90;5.87;;;;;;;5.26;77.90;101443.94;5107029;28;20270;-66
2022/01/20 07:32:12;;;;;;;17.50;5.93;;;;;;;4.61;79.58;101445.94;5104113;27;20682;-66
2022/01/20 07:34:39;;;;;;;14.57;6.05;;;;;;;4.82;79.35;101451.75;5104567;28;20531;-62
2022/01/20 07:37:08;;;;;;;15.57;5.07;;;;;;;5.17;77.92;101447.94;5101198;28;20234;-62
2022/01/20 07:39:36;;;;;;;14.40;5.00;;;;;;;5.26;76.65;101451.81;5104236;28;20625;-62
2022/01/20 07:42:05;;;;;;;11.97;5.00;;;;;;;5.41;76.65;101455.31;5101273;28;20445;-62
2022/01/20 07:44:33;;;;;;;12.57;4.53;;;;;;;5.19;80.46;101461.00;5098307;27;20242;-61
2022/01/20 07:47:01;;;;;;;14.77;5.30;;;;;;;5.01;77.89;101462.06;5100127;28;20212;-59
2022/01/20 07:49:29;;;;;;;12.67;4.10;;;;;;;4.93;78.48;101458.06;5099899;27;20218;-62
2022/01/20 07:51:57;;;;;;;11.20;3.67;;;;;;;5.38;75.94;101464.22;5100472;28;20225;-62
2022/01/20 07:54:26;;;;;;;13.70;3.53;;;;;;;5.29;76.14;101467.41;5101505;27;20219;-62
2022/01/20 07:56:54;;;;;;;18.80;4.33;;;;;;;5.43;75.14;101464.81;5104425;27;20216;-62
2022/01/20 07:59:24;;;;;;;14.00;3.50;;;;;;;5.54;74.54;101472.91;5104402;28;20293;-62
2022/01/20 08:01:52;;;;;;;11.40;3.70;;;;;;;5.41;75.48;101474.56;5101737;28;20317;-63
2022/01/20 08:04:20;;;;;;;17.43;3.63;;;;;;;5.31;75.36;101473.41;5102261;27;20577;-62
2022/01/20 08:06:48;;;;;;;12.47;3.97;;;;;;;5.28;74.97;101479.69;5097807;27;20250;-60
2022/01/20 08:09:15;;;;;;;9.67;3.20;;;;;;;5.48;74.17;101482.94;5104455;28;20209;-61
2022/01/20 08:11:45;;;;;;;12.50;3.77;;;;;;;5.25;74.82;101479.06;5101703;28;20298;-59
2022/01/20 08:14:12;;;;;;;14.20;4.47;;;;;;;5.11;76.09;101476.34;5102501;27;20234;-61
2022/01/20 08:16:40;;;;;;;12.70;3.67;;;;;;;5.29;75.77;101472.66;5102635;28;20696;-62
2022/01/20 08:19:08;;;;;;;9.70;3.37;;;;;;;5.02;76.79;101475.09;5086884;28;20258;-62
2022/01/20 08:21:35;;;;;;;13.03;3.47;;;;;;;5.51;74.83;101477.50;5091395;28;20649;-62
2022/01/20 08:24:03;;;;;;;16.23;3.80;;;;;;;5.73;73.76;101477.06;5107149;28;20301;-62
2022/01/20 08:26:31;;;;;;;14.17;3.87;;;;;;;5.22;74.43;101477.44;5104481;28;20237;-62
2022/01/20 08:29:01;;;;;;;13.20;2.73;;;;;;;5.66;73.50;101493.22;5102709;28;20220;-62
2022/01/20 08:31:29;;;;;;;13.80;3.17;;;;;;;5.76;73.26;101505.84;5098095;28;20210;-62
2022/01/20 08:33:57;;;;;;;10.20;2.70;;;;;;;5.73;73.29;101519.16;5097617;28;20255;-62
2022/01/20 08:36:25;;;;;;;10.17;2.43;;;;;;;5.88;72.20;101516.53;5093372;28;20208;-62
2022/01/20 08:38:53;;;;;;;8.40;2.27;;;;;;;5.73;72.95;101516.53;5105299;28;20222;-62
2022/01/20 08:41:20;;;;;;;13.40;2.40;;;;;;;5.97;72.53;101513.31;5103650;28;20220;-62
2022/01/20 08:43:48;;;;;;;12.10;2.20;;;;;;;6.10;71.91;101502.88;5100653;28;20481;-62
2022/01/20 08:46:20;;;;;;;11.53;2.40;;;;;;;6.31;71.36;101517.38;5097300;28;20210;-62
2022/01/20 08:48:48;;;;;;;11.77;2.30;;;;;;;6.50;70.45;101511.78;5105138;28;20333;-62
2022/01/20 08:51:16;;;;;;;8.20;1.50;;;;;;;6.79;69.99;101504.63;5096339;28;20215;-62
2022/01/20 08:53:43;;;;;;;8.50;1.80;;;;;;;6.73;69.23;101494.50;5093865;28;20366;-63
2022/01/20 08:56:12;;;;;;;6.67;1.40;;;;;;;7.02;68.85;101492.63;5106939;28;20301;-62
2022/01/20 08:58:40;;;;;;;8.10;1.83;;;;;;;6.74;69.31;101488.28;5100142;28;20339;-62
2022/01/20 09:01:08;;;;;;;7.53;1.20;;;;;;;6.93;68.70;101498.50;5100210;28;20679;-61
2022/01/20 09:03:37;;;;;;;5.67;1.23;;;;;;;6.94;69.20;101497.56;5099792;28;20215;-61
2022/01/20 09:06:06;;;;;;;8.40;1.57;;;;;;;6.68;68.96;101501.88;5104043;28;20290;-61
2022/01/20 09:08:33;;;;;;;6.53;1.30;;;;;;;7.04;68.47;101503.88;5101978;28;20239;-64
2022/01/20 09:11:06;;;;;;;6.60;1.20;;;;;;;7.30;67.86;101503.00;5104641;28;20209;-64
2022/01/20 09:16:19;;;;;;;8.63;1.73;;;;;;;7.76;65.90;101519.25;5075792;28;20212;-64
2022/01/20 09:18:48;;;;;;;10.30;2.20;;;;;;;7.18;67.29;101525.81;5078882;28;20475;-65
2022/01/20 09:21:21;;;;;;;10.03;1.60;;;;;;;7.31;67.77;101524.97;5092625;28;20211;-64
2022/01/20 09:23:48;;;;;;;6.10;1.63;;;;;;;9.51;60.27;101519.00;5085076;28;20567;-65
2022/01/20 09:26:16;;;;;;;5.63;1.30;;;;;;;11.62;54.00;101508.13;5087035;28;20234;-65
2022/01/20 09:28:45;;;;;;;4.30;1.10;;;;;;;11.42;53.11;101503.66;5086056;28;20672;-65
2022/01/20 09:31:14;;;;;;;7.03;1.27;;;;;;;11.24;55.21;101518.47;5084162;28;20214;-66
2022/01/20 09:33:41;;;;;;;7.13;1.40;;;;;;;9.58;59.66;101509.66;5070845;28;20299;-66
2022/01/20 09:36:12;;;;;;;7.10;1.60;;;;;;;11.08;56.11;101524.19;5085866;28;20209;-66
2022/01/20 09:38:40;;;;;;;4.90;1.00;;;;;;;12.87;50.93;101536.28;5086018;28;20316;-66
2022/01/20 09:41:08;;;;;;;3.27;1.17;;;;;;;14.03;45.93;101545.13;5086534;28;20305;-63
2022/01/20 09:43:36;;;;;;;4.47;1.00;;;;;;;17.07;39.39;101549.94;5079330;28;20543;-61
2022/01/20 09:46:05;;;;;;;3.27;0.80;;;;;;;19.44;35.63;101546.50;5083171;28;20225;-63
2022/01/20 09:48:32;;;;;;;4.37;1.13;;;;;;;18.20;37.19;101551.84;5098531;28;20653;-64
2022/01/20 09:51:01;;;;;;;3.90;0.87;;;;;;;18.05;36.36;101558.91;5086828;28;20206;-65
2022/01/20 09:53:33;;;;;;;10.30;1.60;;;;;;;12.91;45.24;101577.63;5078848;28;20549;-65
2022/01/20 09:56:01;;;;;;;6.10;1.30;;;;;;;12.76;46.79;101583.31;5076715;28;20591;-62
2022/01/20 09:58:29;;;;;;;3.80;1.03;;;;;;;15.70;41.09;101577.66;5083485;28;20234;-61
2022/01/20 10:00:58;;;;;;;3.20;0.90;;;;;;;13.61;44.45;101596.13;5077538;28;20209;-61
2022/01/20 10:03:29;;;;;;;6.00;1.17;;;;;;;11.20;50.28;101602.00;5083018;28;20296;-61
2022/01/20 10:06:00;;;;;;;4.70;1.20;;;;;;;10.40;53.61;101606.63;5079361;28;20225;-62
2022/01/20 10:08:35;;;;;;;5.70;1.50;;;;;;;10.28;53.95;101610.25;5079904;28;20207;-63
2022/01/20 10:11:06;;;;;;;5.97;1.50;;;;;;;11.24;52.14;101604.28;5085614;28;20611;-63
2022/01/20 10:13:37;;;;;;;3.83;1.27;;;;;;;10.09;53.70;101603.69;5089077;28;20242;-61
2022/01/20 10:16:07;;;;;;;7.07;1.07;;;;;;;10.07;54.59;101605.59;5083959;28;20219;-64
2022/01/20 10:18:46;;;;;;;6.63;1.30;;;;;;;9.66;56.46;101610.56;5099043;28;20283;-61
2022/01/20 10:21:15;;;;;;;6.67;1.30;;;;;;;9.09;58.11;101627.09;5112681;27;20267;-62
2022/01/20 10:23:47;;;;;;;6.50;1.57;;;;;;;8.84;58.73;101619.22;5099608;27;20291;-62
2022/01/20 10:26:17;;;;;;;7.40;1.30;;;;;;;8.70;59.04;101622.84;5115036;27;20590;-62
2022/01/20 10:28:51;;;;;;;7.33;1.30;;;;;;;8.57;59.22;101628.16;5094249;27;20737;-61
2022/01/20 10:31:30;;;;;;;6.80;1.43;;;;;;;8.33;59.83;101621.91;5105747;28;20648;-63
2022/01/20 10:33:58;;;;;;;5.63;1.63;;;;;;;8.59;60.68;101626.25;5087288;28;20279;-61
2022/01/20 10:36:26;;;;;;;10.47;1.87;;;;;;;9.01;59.28;101632.09;5106507;28;20647;-64
2022/01/20 10:38:58;;;;;;;4.73;1.33;;;;;;;8.87;60.32;101626.94;5086897;28;21425;-61
2022/01/20 10:41:30;;;;;;;5.80;1.63;;;;;;;8.80;60.90;101633.59;5099840;27;20206;-61
2022/01/20 10:44:04;;;;;;;9.33;1.60;;;;;;;8.54;61.88;101631.00;5109657;27;20219;-61
2022/01/20 10:46:46;;;;;;;6.63;1.47;;;;;;;8.85;60.87;101624.41;5109398;27;20214;-63
2022/01/20 10:49:14;;;;;;;6.03;1.50;;;;;;;9.16;60.09;101627.47;5104426;27;20595;-61
2022/01/20 10:51:43;;;;;;;9.73;1.60;;;;;;;8.76;60.95;101630.34;5096034;27;20305;-61
2022/01/20 10:54:14;;;;;;;6.80;1.60;;;;;;;8.72;60.35;101628.00;5090484;28;20312;-62
2022/01/20 10:56:52;;;;;;;7.03;1.77;;;;;;;9.08;59.62;101612.16;5094684;28;20216;-62
2022/01/20 10:59:21;;;;;;;6.00;1.40;;;;;;;9.09;58.99;101613.84;5081989;28;20665;-62
2022/01/20 11:02:00;;;;;;;5.13;1.30;;;;;;;9.27;59.03;101611.69;5095224;28;20295;-62
2022/01/20 11:04:28;;;;;;;5.30;1.60;;;;;;;9.35;58.60;101601.38;5107121;27;20306;-63
2022/01/20 11:06:59;;;;;;;6.10;1.57;;;;;;;11.52;53.37;101600.19;5108626;27;20737;-62
2022/01/20 11:09:31;;;;;;;5.53;1.80;;;;;;;10.96;54.19;101603.97;5112341;27;20212;-60
2022/01/20 11:12:00;;;;;;;9.83;2.27;;;;;;;10.67;53.43;101604.47;5115250;27;20222;-60
2022/01/20 11:14:30;;;;;;;10.13;2.13;;;;;;;10.83;52.94;101594.34;5104824;27;21598;-61
2022/01/20 11:16:59;;;;;;;8.43;1.60;;;;;;;10.12;54.52;101590.19;5102620;27;20214;-61
2022/01/20 11:19:31;;;;;;;8.27;2.33;;;;;;;10.50;53.22;101592.56;5112959;27;20579;-61
2022/01/20 11:22:09;;;;;;;10.90;1.80;;;;;;;12.01;50.14;101581.03;5104673;27;20322;-62
2022/01/20 11:24:40;;;;;;;7.83;1.73;;;;;;;12.78;46.97;101583.19;5106437;28;20210;-62
2022/01/20 11:27:11;;;;;;;7.63;1.80;;;;;;;14.32;44.69;101578.75;5096684;28;20259;-63
2022/01/20 11:29:44;;;;;;;9.57;2.20;;;;;;;14.46;43.67;101584.59;5103142;28;20837;-63
2022/01/20 11:32:21;;;;;;;7.43;2.43;;;;;;;13.94;44.02;101584.16;5093377;27;20218;-63
2022/01/20 11:35:01;;;;;;;4.32;1.38;;;;;;;14.15;44.45;101584.84;5094212;28;20677;-62
2022/01/20 11:37:34;;;;;;;8.77;1.70;;;;;;;13.96;42.76;101576.03;5102307;28;20259;-62
2022/01/20 11:40:22;;;;;;;6.53;2.22;;;;;;;14.34;42.73;101577.75;5101382;28;20226;-64
2022/01/20 11:42:58;;;;;;;9.10;2.00;;;;;;;14.05;43.19;101580.50;5093689;28;20213;-62
2022/01/20 11:45:29;;;;;;;11.00;2.30;;;;;;;12.48;46.34;101585.91;5095498;28;21974;-62
2022/01/20 11:47:57;;;;;;;5.00;1.70;;;;;;;12.45;45.68;101581.69;5087550;28;20250;-62
2022/01/20 11:50:25;;;;;;;5.30;1.40;;;;;;;11.64;47.87;101583.25;5096894;27;20280;-64
2022/01/20 11:52:53;;;;;;;7.13;1.67;;;;;;;11.07;49.29;101582.72;5087700;28;20674;-63
2022/01/20 11:55:30;;;;;;;6.33;1.70;;;;;;;10.17;51.40;101582.78;5085355;28;20233;-62
2022/01/20 11:57:58;;;;;;;10.17;2.57;;;;;;;9.91;51.81;101589.19;5096108;28;20245;-63
2022/01/20 12:00:29;;;;;;;6.83;1.90;;;;;;;9.63;52.64;101597.53;5097397;28;20253;-62
2022/01/20 12:02:57;;;;;;;7.70;1.90;;;;;;;9.38;52.54;101595.84;5091523;27;20680;-63
2022/01/20 12:05:28;;;;;;;11.57;2.37;;;;;;;8.92;52.81;101593.91;5102204;27;20258;-63
2022/01/20 12:08:07;;;;;;;8.97;2.53;;;;;;;8.71;52.84;101584.84;5094161;27;20250;-61
2022/01/20 12:10:38;;;;;;;7.77;1.80;;;;;;;8.55;53.81;101594.81;5089371;28;20220;-62
2022/01/20 12:13:08;;;;;;;7.80;1.93;;;;;;;8.80;53.29;101591.28;5101935;27;20215;-62
2022/01/20 12:15:49;;;;;;;8.07;1.60;;;;;;;8.78;53.58;101598.50;5093336;28;20617;-62
2022/01/20 12:18:18;;;;;;;7.47;1.70;;;;;;;8.36;53.09;101603.19;5102025;27;20217;-63
2022/01/20 12:20:46;;;;;;;9.40;1.60;;;;;;;8.76;53.11;101605.69;5101487;28;20268;-62
2022/01/20 12:23:14;;;;;;;7.20;2.07;;;;;;;8.45;52.91;101610.47;5100359;28;20237;-64
2022/01/20 12:25:43;;;;;;;6.10;1.57;;;;;;;8.48;54.09;101618.22;5096353;28;20231;-62
2022/01/20 12:28:13;;;;;;;9.93;2.53;;;;;;;8.46;53.79;101620.09;5096341;28;20707;-62
2022/01/20 12:30:47;;;;;;;12.37;2.07;;;;;;;8.58;53.37;101626.34;5100754;28;20750;-61
2022/01/20 12:33:22;;;;;;;8.57;3.00;;;;;;;8.65;53.74;101628.44;5104564;28;20211;-65